createdAt,value
2019-06-10T00:01:42.743Z,56.10
2019-06-10T00:04:12.715Z,56.20
2019-06-10T00:06:42.869Z,56.10
2019-06-10T00:09:12.550Z,56.30
2019-06-10T00:11:42.248Z,56.20
2019-06-10T00:14:11.979Z,56.00
2019-06-10T00:16:41.766Z,56.00
2019-06-10T00:19:12.914Z,56.20
2019-06-10T00:21:43.691Z,56.60
2019-06-10T00:24:13.488Z,57.20
2019-06-10T00:26:43.268Z,58.00
2019-06-10T00:29:12.996Z,58.30
2019-06-10T00:31:42.718Z,58.40
2019-06-10T00:34:12.640Z,57.80
2019-06-10T00:36:42.447Z,57.50
2019-06-10T00:39:13.460Z,57.60
2019-06-10T00:41:43.598Z,58.30
2019-06-10T00:44:13.458Z,59.00
2019-06-10T00:46:43.219Z,58.80
2019-06-10T00:49:14.694Z,59.10
2019-06-10T00:51:44.266Z,60.00
2019-06-10T00:54:15.787Z,59.20
2019-06-10T00:56:45.338Z,59.20
2019-06-10T00:59:15.494Z,60.00
2019-06-10T01:01:46.617Z,59.00
2019-06-10T01:04:16.654Z,59.00
2019-06-10T01:06:46.454Z,59.40
2019-06-10T01:09:16.120Z,59.10
2019-06-10T01:11:45.816Z,59.10
2019-06-10T01:14:15.652Z,59.10
2019-06-10T01:16:45.398Z,58.90
2019-06-10T01:19:15.862Z,58.90
2019-06-10T01:21:45.801Z,58.70
2019-06-10T01:24:15.490Z,58.70
2019-06-10T01:26:45.164Z,58.30
2019-06-10T01:29:15.549Z,58.60
2019-06-10T01:31:46.502Z,57.80
2019-06-10T01:34:16.169Z,57.80
2019-06-10T01:36:45.845Z,57.70
2019-06-10T01:39:16.805Z,57.80
2019-06-10T01:41:46.915Z,58.10
2019-06-10T01:44:17.707Z,57.90
2019-06-10T01:46:47.586Z,58.00
2019-06-10T01:49:18.183Z,57.90
2019-06-10T01:51:48.016Z,57.70
2019-06-10T01:54:18.464Z,57.70
2019-06-10T01:56:50.850Z,57.80
2019-06-10T01:59:22.058Z,57.60
2019-06-10T02:01:57.007Z,57.60
2019-06-10T02:04:26.705Z,57.40
2019-06-10T02:06:56.451Z,57.70
2019-06-10T02:09:27.704Z,57.50
2019-06-10T02:11:57.385Z,57.30
2019-06-10T02:14:27.073Z,57.30
2019-06-10T02:16:56.791Z,57.30
2019-06-10T02:19:26.461Z,57.30
2019-06-10T02:21:56.150Z,57.20
2019-06-10T02:24:25.861Z,57.00
2019-06-10T02:26:55.572Z,57.10
2019-06-10T02:29:25.245Z,57.00
2019-06-10T02:31:54.953Z,57.00
2019-06-10T02:34:27.328Z,56.90
2019-06-10T02:36:56.059Z,57.10
2019-06-10T02:39:33.440Z,57.30
2019-06-10T02:42:04.564Z,57.30
2019-06-10T02:44:37.481Z,57.40
2019-06-10T02:47:04.913Z,57.40
2019-06-10T02:49:51.658Z,57.50
2019-06-10T02:52:19.929Z,57.80
2019-06-10T02:54:53.123Z,59.30
2019-06-10T02:57:29.271Z,60.20
2019-06-10T02:59:54.451Z,65.10
2019-06-10T03:02:31.211Z,66.90
2019-06-10T03:04:55.597Z,69.80
2019-06-10T03:07:28.833Z,77.20
2019-06-10T03:09:56.740Z,70.10
2019-06-10T03:12:26.445Z,71.90
2019-06-10T03:14:56.147Z,72.00
2019-06-10T03:17:28.135Z,72.60
2019-06-10T03:19:57.873Z,74.30
2019-06-10T03:22:28.452Z,73.10
2019-06-10T03:24:58.253Z,75.50
2019-06-10T03:27:28.032Z,76.70
2019-06-10T03:29:57.840Z,77.50
2019-06-10T03:32:33.333Z,78.20
2019-06-10T03:34:58.908Z,79.20
2019-06-10T03:37:28.588Z,80.70
2019-06-10T03:39:59.247Z,81.80
2019-06-10T03:42:28.902Z,83.00
2019-06-10T03:44:58.607Z,84.00
2019-06-10T03:47:28.801Z,87.50
2019-06-10T03:49:58.683Z,90.00
2019-06-10T03:52:28.617Z,91.90
2019-06-10T03:54:58.475Z,94.30
2019-06-10T03:57:28.661Z,96.90
2019-06-10T03:59:58.618Z,99.80
2019-06-10T04:02:28.542Z,99.90
2019-06-10T04:04:58.346Z,99.90
2019-06-10T04:07:30.986Z,99.90
2019-06-10T04:09:59.414Z,99.90
2019-06-10T04:12:29.175Z,99.90
2019-06-10T04:14:59.037Z,99.90
2019-06-10T04:17:28.885Z,99.90
2019-06-10T04:20:09.417Z,99.90
2019-06-10T04:22:32.974Z,99.90
2019-06-10T04:25:03.045Z,99.90
2019-06-10T04:27:33.024Z,99.90
2019-06-10T04:30:03.364Z,99.90
2019-06-10T04:32:33.227Z,99.90
2019-06-10T04:35:02.966Z,99.90
2019-06-10T04:37:35.458Z,99.90
2019-06-10T04:40:05.775Z,99.90
2019-06-10T04:42:35.608Z,99.90
2019-06-10T04:45:06.080Z,99.90
2019-06-10T04:47:36.818Z,99.90
2019-06-10T04:50:21.834Z,99.90
2019-06-10T04:52:43.157Z,99.90
2019-06-10T04:55:13.507Z,99.90
2019-06-10T04:57:43.241Z,99.90
2019-06-10T05:00:14.835Z,99.90
2019-06-10T05:02:44.628Z,99.90
2019-06-10T05:05:14.479Z,99.90
2019-06-10T05:07:44.157Z,99.90
2019-06-10T05:10:14.022Z,99.90
2019-06-10T05:12:43.715Z,99.90
2019-06-10T05:15:13.720Z,99.90
2019-06-10T05:17:43.917Z,99.90
2019-06-10T05:20:14.314Z,99.90
2019-06-10T05:22:44.025Z,99.90
2019-06-10T05:25:13.767Z,99.90
2019-06-10T05:27:43.544Z,99.90
2019-06-10T05:30:14.052Z,99.90
2019-06-10T05:32:43.739Z,99.90
2019-06-10T05:35:13.476Z,99.90
2019-06-10T05:37:43.159Z,99.90
2019-06-10T05:40:13.188Z,99.90
2019-06-10T05:42:44.164Z,99.90
2019-06-10T05:45:14.183Z,99.90
2019-06-10T05:47:43.891Z,99.90
2019-06-10T05:50:15.294Z,99.90
2019-06-10T05:52:44.987Z,99.90
2019-06-10T05:55:14.689Z,99.90
2019-06-10T05:57:44.420Z,99.90
2019-06-10T06:00:15.105Z,99.90
2019-06-10T06:02:45.162Z,99.90
2019-06-10T06:05:15.283Z,99.90
2019-06-10T06:07:45.121Z,99.90
2019-06-10T06:10:16.546Z,99.90
2019-06-10T06:12:46.415Z,99.90
2019-06-10T06:15:16.653Z,99.90
2019-06-10T06:17:46.349Z,99.90
2019-06-10T06:20:16.674Z,99.90
2019-06-10T06:22:46.467Z,99.90
2019-06-10T06:25:16.547Z,99.90
2019-06-10T06:27:46.393Z,99.90
2019-06-10T06:30:18.943Z,99.90
2019-06-10T06:32:48.884Z,99.90
2019-06-10T06:35:18.693Z,99.90
2019-06-10T06:37:48.419Z,99.90
2019-06-10T06:40:19.255Z,99.90
2019-06-10T06:42:49.519Z,99.90
2019-06-10T06:45:22.076Z,99.90
2019-06-10T06:47:52.649Z,99.90
2019-06-10T06:50:25.561Z,99.90
2019-06-10T06:53:19.724Z,99.90
2019-06-10T06:55:26.586Z,99.90
2019-06-10T06:57:56.443Z,99.90
2019-06-10T07:00:48.986Z,99.90
2019-06-10T07:03:06.185Z,99.90
2019-06-10T07:05:37.553Z,99.90
2019-06-10T07:08:07.938Z,99.90
2019-06-10T07:10:38.842Z,99.90
2019-06-10T07:13:08.875Z,99.90
2019-06-10T07:15:46.531Z,99.90
2019-06-10T07:18:13.107Z,99.90
2019-06-10T07:20:45.609Z,99.90
2019-06-10T07:23:14.631Z,99.90
2019-06-10T07:25:47.160Z,99.90
2019-06-10T07:28:15.850Z,99.90
2019-06-10T07:30:51.680Z,99.90
2019-06-10T07:33:18.051Z,99.90
2019-06-10T07:35:47.776Z,99.90
2019-06-10T07:38:17.477Z,99.90
2019-06-10T07:40:47.247Z,99.90
2019-06-10T07:43:17.070Z,99.90
2019-06-10T07:45:48.068Z,99.90
2019-06-10T07:48:18.147Z,99.90
2019-06-10T07:50:47.931Z,99.90
2019-06-10T07:53:17.706Z,99.90
2019-06-10T07:55:47.393Z,99.90
2019-06-10T07:58:17.228Z,99.90
2019-06-10T08:00:48.522Z,99.90
2019-06-10T08:03:18.548Z,99.90
2019-06-10T08:05:48.411Z,99.90
2019-06-10T08:08:18.241Z,99.90
2019-06-10T08:10:48.253Z,99.90
2019-06-10T08:13:18.137Z,99.90
2019-06-10T08:15:48.401Z,99.90
2019-06-10T08:18:18.443Z,99.90
2019-06-10T08:20:48.427Z,99.90
2019-06-10T08:23:19.183Z,99.90
2019-06-10T08:25:54.684Z,99.90
2019-06-10T08:28:23.046Z,99.20
2019-06-10T08:30:53.269Z,98.00
2019-06-10T08:33:23.302Z,96.90
2019-06-10T08:35:59.357Z,97.00
2019-06-10T08:38:24.456Z,96.10
2019-06-10T08:40:54.145Z,96.30
2019-06-10T08:43:23.805Z,95.70
2019-06-10T08:45:53.520Z,95.70
2019-06-10T08:48:23.311Z,96.10
2019-06-10T08:50:53.635Z,96.30
2019-06-10T08:53:23.359Z,95.80
2019-06-10T08:55:53.795Z,96.00
2019-06-10T08:58:24.639Z,95.80
2019-06-10T09:00:54.511Z,95.40
2019-06-10T09:03:24.306Z,94.60
2019-06-10T09:05:58.170Z,94.20
2019-06-10T09:08:26.142Z,93.40
2019-06-10T09:10:59.351Z,93.20
2019-06-10T09:13:29.190Z,92.40
2019-06-10T09:16:11.698Z,92.00
2019-06-10T09:18:33.417Z,91.80
2019-06-10T09:21:02.422Z,92.10
2019-06-10T09:23:33.090Z,91.70
2019-06-10T09:26:03.697Z,90.50
2019-06-10T09:28:33.706Z,89.80
2019-06-10T09:31:05.024Z,90.00
2019-06-10T09:33:35.056Z,90.00
2019-06-10T09:36:05.156Z,90.40
2019-06-10T09:38:34.830Z,90.80
2019-06-10T09:41:06.176Z,90.60
2019-06-10T09:43:36.260Z,89.10
2019-06-10T09:46:06.148Z,88.30
2019-06-10T09:48:36.071Z,87.20
2019-06-10T09:51:05.894Z,86.60
2019-06-10T09:53:42.920Z,86.70
2019-06-10T09:56:07.117Z,85.00
2019-06-10T09:58:36.948Z,85.10
2019-06-10T10:01:06.902Z,85.30
2019-06-10T10:03:36.969Z,85.10
2019-06-10T10:06:14.583Z,86.10
2019-06-10T10:08:38.706Z,85.50
2019-06-10T10:11:08.471Z,86.50
2019-06-10T10:13:38.235Z,86.60
2019-06-10T10:16:07.972Z,86.10
2019-06-10T10:18:37.733Z,85.40
2019-06-10T10:21:07.596Z,85.20
2019-06-10T10:23:51.197Z,86.30
2019-06-10T10:26:08.730Z,85.00
2019-06-10T10:28:38.491Z,84.50
2019-06-10T10:31:08.207Z,87.00
2019-06-10T10:33:39.508Z,85.10
2019-06-10T10:36:09.226Z,85.50
2019-06-10T10:38:38.942Z,85.00
2019-06-10T10:41:08.678Z,85.50
2019-06-10T10:43:38.445Z,86.50
2019-06-10T10:46:09.354Z,87.80
2019-06-10T10:48:39.252Z,88.50
2019-06-10T10:51:14.975Z,87.80
2019-06-10T10:53:48.568Z,87.40
2019-06-10T10:56:16.068Z,87.00
2019-06-10T10:58:47.344Z,85.40
2019-06-10T11:01:17.282Z,85.10
2019-06-10T11:03:48.236Z,84.70
2019-06-10T11:06:19.448Z,84.50
2019-06-10T11:08:49.983Z,84.60
2019-06-10T11:11:22.844Z,84.00
2019-06-10T11:13:56.572Z,82.50
2019-06-10T11:16:24.212Z,81.70
2019-06-10T11:18:56.223Z,81.30
2019-06-10T11:21:25.306Z,82.00
2019-06-10T11:24:00.847Z,80.90
2019-06-10T11:26:27.026Z,77.70
2019-06-10T11:28:57.972Z,77.70
2019-06-10T11:31:27.900Z,77.20
2019-06-10T11:34:09.952Z,76.90
2019-06-10T11:36:42.777Z,77.30
2019-06-10T11:39:13.531Z,77.20
2019-06-10T11:41:43.792Z,77.60
2019-06-10T11:44:17.062Z,76.50
2019-06-10T11:46:54.870Z,75.60
2019-06-10T11:49:24.625Z,75.40
2019-06-10T11:51:56.481Z,74.50
2019-06-10T11:54:25.777Z,74.60
2019-06-10T11:56:57.984Z,74.40
2019-06-10T11:59:27.030Z,75.60
2019-06-10T12:01:59.934Z,74.40
2019-06-10T12:04:28.257Z,75.00
2019-06-10T12:06:59.211Z,74.10
2019-06-10T12:09:28.921Z,74.30
2019-06-10T12:12:02.381Z,74.60
2019-06-10T12:14:33.139Z,75.20
2019-06-10T12:17:41.124Z,75.30
2019-06-10T12:19:38.552Z,74.10
2019-06-10T12:22:08.513Z,73.70
2019-06-10T12:24:38.181Z,73.80
2019-06-10T12:27:08.665Z,73.20
2019-06-10T12:29:38.355Z,73.30
2019-06-10T12:32:08.057Z,72.60
2019-06-10T12:34:37.830Z,72.50
2019-06-10T12:37:11.099Z,73.80
2019-06-10T12:39:42.229Z,72.80
2019-06-10T12:42:14.143Z,72.40
2019-06-10T12:44:43.131Z,72.10
2019-06-10T12:47:12.848Z,71.70
2019-06-10T12:49:43.685Z,71.50
2019-06-10T12:52:13.376Z,70.40
2019-06-10T12:54:43.469Z,71.10
2019-06-10T12:57:16.239Z,71.40
2019-06-10T12:59:44.906Z,71.20
2019-06-10T13:02:22.588Z,71.40
2019-06-10T13:04:47.142Z,70.50
2019-06-10T13:07:18.818Z,70.60
2019-06-10T13:09:48.765Z,69.30
2019-06-10T13:12:18.571Z,69.70
2019-06-10T13:14:48.365Z,68.30
2019-06-10T13:17:18.598Z,67.20
2019-06-10T13:19:49.200Z,66.50
2019-06-10T13:22:23.072Z,67.10
2019-06-10T13:24:53.620Z,65.90
2019-06-10T13:27:23.543Z,66.50
2019-06-10T13:29:53.515Z,66.80
2019-06-10T13:32:25.269Z,68.20
2019-06-10T13:35:03.651Z,68.20
2019-06-10T13:37:33.310Z,68.90
2019-06-10T13:40:06.721Z,68.70
2019-06-10T13:42:36.884Z,69.50
2019-06-10T13:45:08.557Z,70.90
2019-06-10T13:47:39.617Z,70.10
2019-06-10T13:50:11.459Z,69.90
2019-06-10T13:52:42.622Z,68.60
2019-06-10T13:55:14.423Z,68.40
2019-06-10T13:57:44.750Z,68.60
2019-06-10T14:00:16.287Z,68.60
2019-06-10T14:02:46.035Z,68.80
2019-06-10T14:05:18.286Z,68.10
2019-06-10T14:07:47.563Z,69.10
2019-06-10T14:10:18.385Z,69.90
2019-06-10T14:12:49.179Z,70.10
2019-06-10T14:15:19.330Z,70.50
2019-06-10T14:17:49.071Z,69.80
2019-06-10T14:20:19.002Z,70.40
2019-06-10T14:22:48.757Z,70.60
2019-06-10T14:25:18.618Z,70.90
2019-06-10T14:27:48.719Z,70.50
2019-06-10T14:30:18.642Z,71.00
2019-06-10T14:32:48.306Z,71.60
2019-06-10T14:35:18.210Z,72.30
2019-06-10T14:37:47.889Z,71.30
2019-06-10T14:40:20.942Z,71.50
2019-06-10T14:42:52.361Z,71.60
2019-06-10T14:45:23.166Z,71.40
2019-06-10T14:47:54.811Z,72.20
2019-06-10T14:50:25.593Z,73.40
2019-06-10T14:52:55.321Z,73.20
2019-06-10T14:55:25.076Z,72.90
2019-06-10T14:57:54.808Z,73.30
2019-06-10T15:00:24.708Z,73.40
2019-06-10T15:02:54.438Z,73.60
2019-06-10T15:05:25.138Z,72.70
2019-06-10T15:07:54.845Z,72.00
2019-06-10T15:10:24.538Z,73.10
2019-06-10T15:12:54.344Z,71.70
2019-06-10T15:15:24.079Z,71.20
2019-06-10T15:17:53.972Z,71.00
2019-06-10T15:20:26.384Z,72.50
2019-06-10T15:22:56.206Z,72.50
2019-06-10T15:25:28.298Z,73.20
2019-06-10T15:27:57.538Z,73.90
2019-06-10T15:30:31.212Z,75.10
2019-06-10T15:32:58.962Z,76.10
2019-06-10T15:35:28.815Z,76.00
2019-06-10T15:38:04.186Z,75.30
2019-06-10T15:40:33.064Z,75.30
2019-06-10T15:43:06.193Z,75.30
2019-06-10T15:45:34.838Z,75.40
2019-06-10T15:48:04.662Z,75.80
2019-06-10T15:50:34.508Z,75.40
2019-06-10T15:53:04.212Z,76.20
2019-06-10T15:56:08.469Z,77.40
2019-06-10T15:58:07.608Z,77.20
2019-06-10T16:00:37.407Z,77.90
2019-06-10T16:03:07.179Z,78.70
2019-06-10T16:05:38.493Z,79.80
2019-06-10T16:08:08.170Z,80.60
2019-06-10T16:10:37.837Z,80.50
2019-06-10T16:13:07.649Z,80.60
2019-06-10T16:15:37.302Z,81.20
2019-06-10T16:18:07.104Z,81.30
2019-06-10T16:20:36.822Z,81.50
2019-06-10T16:23:06.536Z,80.70
2019-06-10T16:25:36.190Z,82.40
2019-06-10T16:28:05.890Z,83.00
2019-06-10T16:30:35.750Z,82.60
2019-06-10T16:33:05.730Z,82.40
2019-06-10T16:35:36.444Z,82.40
2019-06-10T16:38:06.714Z,83.00
2019-06-10T16:40:36.536Z,83.30
2019-06-10T16:43:06.335Z,84.80
2019-06-10T16:45:36.192Z,85.30
2019-06-10T16:48:05.999Z,85.70
2019-06-10T16:50:35.713Z,86.30
2019-06-10T16:53:05.411Z,85.90
2019-06-10T16:55:35.055Z,87.60
2019-06-10T16:58:08.141Z,88.80
2019-06-10T17:00:36.269Z,89.60
2019-06-10T17:03:05.998Z,90.20
2019-06-10T17:05:35.820Z,90.40
2019-06-10T17:08:05.674Z,90.70
2019-06-10T17:10:35.370Z,91.00
2019-06-10T17:13:07.295Z,91.30
2019-06-10T17:15:36.964Z,91.50
2019-06-10T17:18:06.690Z,91.80
2019-06-10T17:20:36.458Z,92.10
2019-06-10T17:23:28.920Z,92.70
2019-06-10T17:25:57.152Z,92.90
2019-06-10T17:28:31.767Z,93.50
2019-06-10T17:30:59.674Z,93.80
2019-06-10T17:33:30.402Z,94.20
2019-06-10T17:36:03.451Z,94.40
2019-06-10T17:38:32.688Z,94.80
2019-06-10T17:41:03.064Z,95.10
2019-06-10T17:43:34.446Z,95.60
2019-06-10T17:46:04.308Z,95.40
2019-06-10T17:48:35.121Z,95.70
2019-06-10T17:51:04.927Z,95.90
2019-06-10T17:53:35.116Z,96.30
2019-06-10T17:56:05.095Z,96.60
2019-06-10T17:58:49.980Z,97.10
2019-06-10T18:01:06.543Z,97.80
2019-06-10T18:03:39.759Z,98.40
2019-06-10T18:06:07.685Z,98.80
2019-06-10T18:08:40.583Z,99.40
2019-06-10T18:11:12.512Z,99.90
2019-06-10T18:13:42.903Z,99.90
2019-06-10T18:16:14.381Z,99.90
2019-06-10T18:18:45.159Z,99.90
2019-06-10T18:21:14.991Z,99.90
2019-06-10T18:23:44.788Z,99.90
2019-06-10T18:26:16.889Z,99.90
2019-06-10T18:29:00.438Z,99.90
2019-06-10T18:31:18.799Z,99.90
2019-06-10T18:33:48.633Z,99.90
2019-06-10T18:36:18.514Z,99.90
2019-06-10T18:38:49.270Z,99.90
2019-06-10T18:41:19.023Z,99.90
2019-06-10T18:43:48.727Z,99.90
2019-06-10T18:46:19.038Z,99.90
2019-06-10T18:48:48.947Z,99.90
2019-06-10T18:51:19.155Z,99.90
2019-06-10T18:53:49.140Z,99.90
2019-06-10T18:56:19.642Z,99.90
2019-06-10T18:58:49.646Z,99.90
2019-06-10T19:01:22.639Z,99.90
2019-06-10T19:03:52.978Z,99.90
2019-06-10T19:06:23.514Z,99.90
2019-06-10T19:08:53.269Z,99.90
2019-06-10T19:11:23.153Z,99.90
2019-06-10T19:13:53.354Z,99.90
2019-06-10T19:16:32.570Z,99.90
2019-06-10T19:19:02.639Z,99.90
2019-06-10T19:21:32.800Z,99.90
2019-06-10T19:24:03.229Z,99.90
2019-06-10T19:26:34.575Z,99.90
2019-06-10T19:29:04.668Z,99.90
2019-06-10T19:31:37.549Z,99.90
2019-06-10T19:34:05.942Z,99.90
2019-06-10T19:36:37.996Z,99.90
2019-06-10T19:39:09.136Z,99.90
2019-06-10T19:41:44.152Z,99.90
2019-06-10T19:44:13.035Z,99.90
2019-06-10T19:46:43.163Z,99.90
2019-06-10T19:49:13.494Z,99.90
2019-06-10T19:51:46.794Z,99.90
2019-06-10T19:54:16.209Z,99.90
2019-06-10T19:56:46.216Z,99.90
2019-06-10T19:59:19.001Z,99.90
2019-06-10T20:01:49.071Z,99.90
2019-06-10T20:04:19.003Z,99.90
2019-06-10T20:06:50.784Z,99.90
2019-06-10T20:09:22.480Z,99.90
2019-06-10T20:11:51.960Z,99.90
2019-06-10T20:14:21.745Z,99.90
2019-06-10T20:16:52.632Z,99.90
2019-06-10T20:19:23.243Z,99.90
2019-06-10T20:21:53.039Z,99.90
2019-06-10T20:24:22.706Z,99.90
2019-06-10T20:26:53.000Z,99.90
2019-06-10T20:29:23.033Z,99.90
2019-06-10T20:31:52.743Z,99.90
2019-06-10T20:34:25.732Z,99.90
2019-06-10T20:36:55.085Z,99.90
2019-06-10T20:39:25.090Z,99.90
2019-06-10T20:41:56.621Z,99.90
2019-06-10T20:44:26.291Z,99.90
2019-06-10T20:46:56.237Z,99.90
2019-06-10T20:49:27.080Z,99.90
2019-06-10T20:52:09.825Z,99.90
2019-06-10T20:54:32.205Z,99.90
2019-06-10T20:56:59.839Z,99.90
2019-06-10T20:59:29.636Z,99.90
2019-06-10T21:01:59.315Z,99.90
2019-06-10T21:04:29.050Z,99.90
2019-06-10T21:07:02.533Z,99.90
2019-06-10T21:09:34.753Z,99.90
2019-06-10T21:12:04.690Z,99.90
2019-06-10T21:14:34.464Z,99.90
2019-06-10T21:17:04.248Z,99.90
2019-06-10T21:19:33.932Z,99.90
2019-06-10T21:22:03.731Z,99.90
2019-06-10T21:24:35.233Z,99.90
2019-06-10T21:27:05.059Z,99.90
2019-06-10T21:29:34.813Z,99.90
2019-06-10T21:32:06.483Z,99.90
2019-06-10T21:34:35.994Z,99.90
2019-06-10T21:37:15.636Z,99.90
2019-06-10T21:39:47.767Z,99.90
2019-06-10T21:42:17.253Z,99.90
2019-06-10T21:44:47.986Z,99.90
2019-06-10T21:47:22.788Z,99.90
2019-06-10T21:49:56.320Z,99.90
2019-06-10T21:52:43.162Z,99.90
2019-06-10T21:55:06.044Z,99.90
2019-06-10T21:57:35.879Z,99.90
2019-06-10T22:00:11.332Z,99.90
2019-06-10T22:02:43.196Z,99.90
2019-06-10T22:05:14.859Z,99.90
2019-06-10T22:07:45.443Z,99.90
2019-06-10T22:10:26.804Z,99.90
2019-06-10T22:13:14.547Z,99.90
2019-06-10T22:15:44.327Z,99.90
2019-06-10T22:18:15.414Z,99.90
2019-06-10T22:20:46.618Z,99.90
2019-06-10T22:23:16.725Z,99.90
2019-06-10T22:25:46.796Z,99.90
2019-06-10T22:28:16.631Z,99.90
2019-06-10T22:30:47.151Z,99.90
2019-06-10T22:33:16.974Z,99.90
2019-06-10T22:35:55.062Z,99.90
2019-06-10T22:38:24.025Z,99.90
2019-06-10T22:40:55.449Z,99.90
2019-06-10T22:43:25.110Z,99.90
2019-06-10T22:46:03.752Z,99.90
2019-06-10T22:48:33.376Z,99.90
2019-06-10T22:51:03.352Z,99.90
2019-06-10T22:53:34.759Z,99.90
2019-06-10T22:56:04.507Z,99.90
2019-06-10T22:58:34.226Z,99.90
2019-06-10T23:01:04.451Z,99.90
2019-06-10T23:03:34.281Z,99.90
2019-06-10T23:06:04.075Z,99.90
2019-06-10T23:08:34.012Z,99.90
2019-06-10T23:11:03.792Z,99.90
2019-06-10T23:13:33.615Z,99.90
2019-06-10T23:16:03.388Z,99.90
2019-06-10T23:18:33.064Z,99.90
2019-06-10T23:21:04.439Z,99.90
2019-06-10T23:23:36.242Z,99.90
2019-06-10T23:26:05.927Z,99.90
2019-06-10T23:28:35.598Z,99.90
2019-06-10T23:31:05.624Z,99.90
2019-06-10T23:33:35.647Z,99.90
2019-06-10T23:36:05.396Z,99.90
2019-06-10T23:38:35.119Z,99.90
2019-06-10T23:41:05.045Z,99.90
2019-06-10T23:43:34.728Z,99.90
2019-06-10T23:46:05.490Z,99.90
2019-06-10T23:48:35.181Z,99.90
2019-06-10T23:51:05.247Z,99.90
2019-06-10T23:53:35.171Z,99.90
2019-06-10T23:56:05.226Z,99.90
2019-06-10T23:58:35.189Z,99.90
